KBLF

Mercer County Airport

Bluefield, West Virginia, USA
METAR KBLF 140414Z AUTO VRB06KT 3SM BR OVC003 M02/M02 A3027 RMK AO2 T10171017 $
Observed Flight Rules
Nov-14 @ 04:14 UTC (35 minutes ago) Instrument Flight Rules
Wind Visibility Clouds Conditions
Variable at 6 knots 3 miles
  • Overcast at 300' AGL
  • Mist
Temperatures Readings
Current -2°C / 28°F
Dewpoint -2°C / 28°F
Humidity 100%
Altimeter 30.27" Hg
Pressure 1025 hPa
Elevation 873
METAR KBLF 140414Z AUTO VRB06KT 3SM BR OVC003 M02/M02 A3027 RMK AO2 T10171017 $
Observed Flight Rules
Nov-14 @ 04:14 UTC
(35 minutes ago)
LIFR
Wind Visibility
Variable at 6 knots 3 miles
Clouds
  • Overcast at 300' AGL
Conditions
  • Mist
Temperature Dewpoint
-2°C / 28°F -2°C / 28°F
Humidity Altimeter Pressure
100% 30.27" Hg 1025 hPa